Time;durP1;ratioP1;P1;durP2;ratioP2;P2;SDS_P1;SDS_P2;PMS_P1;PMS_P2;Temp;Humidity;BMP_temperature;BMP_pressure;BME280_temperature;BME280_humidity;BME280_pressure;Samples;Min_cycle;Max_cycle;Signal;HPM_P1;HPM_P2
2023/04/22 00:01:23;;;;;;;5.30;4.80;;;;;;;7.76;100.00;100352.03;7788002;18;20104;-72
2023/04/22 00:03:50;;;;;;;5.57;5.28;;;;;;;7.59;100.00;100318.81;7834167;18;20056;-72
2023/04/22 00:06:17;;;;;;;5.50;5.10;;;;;;;7.38;100.00;100281.50;7788349;18;20006;-72
2023/04/22 00:08:44;;;;;;;7.85;5.35;;;;;;;7.77;100.00;100340.63;7834070;18;20009;-72
2023/04/22 00:11:10;;;;;;;5.80;5.38;;;;;;;7.84;100.00;100342.97;7787032;18;20490;-72
2023/04/22 00:13:37;;;;;;;6.00;5.60;;;;;;;7.39;100.00;100269.28;7835244;18;20498;-73
2023/04/22 00:16:03;;;;;;;6.30;5.68;;;;;;;7.87;100.00;100348.91;7789256;18;20442;-72
2023/04/22 00:18:30;;;;;;;7.05;6.50;;;;;;;7.89;100.00;100344.44;7835178;18;20521;-72
2023/04/22 00:20:56;;;;;;;5.78;5.35;;;;;;;7.92;100.00;100343.47;7787470;18;19994;-73
2023/04/22 00:23:22;;;;;;;6.30;5.78;;;;;;;7.49;100.00;100275.78;7794332;18;20021;-73
2023/04/22 00:25:50;;;;;;;5.10;4.80;;;;;;;7.93;100.00;100340.78;7787941;18;20217;-72
2023/04/22 00:28:16;;;;;;;6.20;5.78;;;;;;;7.96;100.00;100345.03;7792969;18;19994;-73
2023/04/22 00:30:42;;;;;;;5.97;5.50;;;;;;;7.94;100.00;100342.47;7786529;18;20014;-73
2023/04/22 00:33:09;;;;;;;5.43;5.13;;;;;;;7.83;100.00;100333.44;7834703;18;20169;-72
2023/04/22 00:35:35;;;;;;;7.05;6.10;;;;;;;7.99;100.00;100345.72;7788267;18;20068;-72
2023/04/22 00:38:02;;;;;;;5.80;5.40;;;;;;;8.00;100.00;100351.81;7838086;18;20220;-72
2023/04/22 00:40:28;;;;;;;5.55;4.65;;;;;;;7.61;100.00;100278.75;7787507;18;20033;-72
2023/04/22 00:42:55;;;;;;;5.68;5.25;;;;;;;8.02;100.00;100355.19;7835439;18;20020;-71
2023/04/22 00:45:22;;;;;;;6.78;6.00;;;;;;;8.03;100.00;100353.41;7787649;18;20326;-72
2023/04/22 00:47:48;;;;;;;6.00;5.60;;;;;;;8.03;100.00;100350.81;7832289;18;20521;-72
2023/04/22 00:50:15;;;;;;;8.82;5.38;;;;;;;7.61;100.00;100284.81;7787170;18;20009;-72
2023/04/22 00:52:41;;;;;;;17.17;6.97;;;;;;;7.28;100.00;100221.97;7835164;18;20064;-72
2023/04/22 00:55:08;;;;;;;7.32;6.57;;;;;;;8.06;100.00;100346.28;7835016;18;20002;-72
2023/04/22 00:57:36;;;;;;;7.20;6.60;;;;;;;8.06;100.00;100363.72;7745884;18;20007;-72
2023/04/22 01:00:04;;;;;;;8.68;6.28;;;;;;;8.07;100.00;100370.66;7834283;18;19994;-72
2023/04/22 01:02:31;;;;;;;7.13;6.53;;;;;;;8.09;100.00;100350.50;7787692;18;20014;-72
2023/04/22 01:04:58;;;;;;;9.43;7.57;;;;;;;8.11;100.00;100346.06;7834722;18;20063;-74
2023/04/22 01:07:25;;;;;;;8.20;7.38;;;;;;;8.12;100.00;100345.16;7788430;18;20063;-74
2023/04/22 01:09:52;;;;;;;8.07;7.13;;;;;;;8.05;100.00;100339.34;7832175;18;20007;-74
2023/04/22 01:12:18;;;;;;;6.70;6.07;;;;;;;8.16;100.00;100354.53;7786457;18;20065;-72
2023/04/22 01:14:45;;;;;;;6.75;6.22;;;;;;;7.80;100.00;100300.50;7833289;18;20486;-73
2023/04/22 01:17:13;;;;;;;7.30;5.60;;;;;;;8.13;100.00;100357.28;7788039;18;20260;-72
2023/04/22 01:19:40;;;;;;;15.20;7.03;;;;;;;8.11;100.00;100353.91;7833194;18;20001;-72
2023/04/22 01:22:12;;;;;;;7.00;6.10;;;;;;;8.11;100.00;100359.13;7786118;18;19994;-72
2023/04/22 01:24:41;;;;;;;7.22;6.53;;;;;;;7.69;100.00;100287.06;7833756;18;20004;-72
2023/04/22 01:27:08;;;;;;;7.53;6.38;;;;;;;8.06;100.00;100356.75;7786960;18;20434;-73
2023/04/22 01:29:36;;;;;;;7.68;7.03;;;;;;;8.04;100.00;100357.72;7791474;18;20010;-71
2023/04/22 01:32:04;;;;;;;8.50;6.90;;;;;;;8.05;100.00;100364.66;7787123;18;20150;-72
2023/04/22 01:34:31;;;;;;;6.80;6.20;;;;;;;7.67;100.00;100297.59;7834490;18;20026;-72
2023/04/22 01:36:58;;;;;;;6.53;6.13;;;;;;;8.08;100.00;100362.75;7786820;18;20022;-72
2023/04/22 01:39:25;;;;;;;6.60;6.10;;;;;;;8.10;100.00;100363.53;7792833;18;19997;-72
2023/04/22 01:41:52;;;;;;;7.22;6.63;;;;;;;8.12;100.00;100364.28;7786587;18;20534;-71
2023/04/22 01:44:18;;;;;;;6.20;5.78;;;;;;;7.62;100.00;100294.34;7834580;18;20523;-72
2023/04/22 01:46:45;;;;;;;10.52;6.30;;;;;;;8.11;100.00;100369.59;7786714;18;20001;-73
2023/04/22 01:49:11;;;;;;;6.78;6.25;;;;;;;8.10;100.00;100373.13;7789652;18;20426;-74
2023/04/22 01:51:38;;;;;;;6.32;5.80;;;;;;;8.12;100.00;100402.66;7787648;18;19994;-71
2023/04/22 01:54:04;;;;;;;16.55;6.88;;;;;;;8.17;100.00;100377.13;7790684;18;20005;-73
2023/04/22 01:56:31;;;;;;;6.43;5.90;;;;;;;8.18;100.00;100376.22;7787810;18;20021;-73
2023/04/22 01:58:57;;;;;;;6.22;5.43;;;;;;;8.14;100.00;100367.69;7834096;18;20538;-74
2023/04/22 02:01:24;;;;;;;6.85;6.28;;;;;;;8.14;100.00;100364.22;7786841;18;20061;-73
2023/04/22 02:03:50;;;;;;;7.20;6.50;;;;;;;8.15;100.00;100361.50;7789075;18;20372;-73
2023/04/22 02:06:17;;;;;;;6.60;6.00;;;;;;;8.21;100.00;100365.59;7787654;18;20006;-73
2023/04/22 02:08:43;;;;;;;5.50;5.20;;;;;;;8.22;100.00;100376.91;7834644;18;20017;-73
2023/04/22 02:11:10;;;;;;;7.10;6.43;;;;;;;8.23;100.00;100373.38;7786242;18;20498;-75
2023/04/22 02:13:40;;;;;;;7.07;6.57;;;;;;;8.26;100.00;100378.44;7834431;18;19993;-73
2023/04/22 02:16:07;;;;;;;7.10;5.78;;;;;;;7.70;100.00;100276.56;7787829;18;20022;-74
2023/04/22 02:18:34;;;;;;;8.07;7.32;;;;;;;8.32;100.00;100358.09;7833438;18;20005;-74
2023/04/22 02:21:00;;;;;;;6.25;5.65;;;;;;;7.79;100.00;100281.34;7785194;18;20364;-73
2023/04/22 02:23:27;;;;;;;11.35;5.93;;;;;;;8.31;100.00;100355.56;7833722;18;20422;-75
2023/04/22 02:25:54;;;;;;;7.03;6.07;;;;;;;7.59;100.00;100243.09;7786854;18;20037;-72
2023/04/22 02:28:21;;;;;;;6.15;5.63;;;;;;;7.86;100.00;100281.91;7834886;18;19994;-71
2023/04/22 02:30:48;;;;;;;5.95;5.55;;;;;;;7.49;100.00;100225.34;7785740;18;20320;-71
2023/04/22 02:33:14;;;;;;;5.82;5.47;;;;;;;8.34;100.00;100360.66;7833469;18;20023;-71
2023/04/22 02:35:40;;;;;;;5.70;4.97;;;;;;;8.28;100.00;100348.72;7788165;18;20002;-72
2023/04/22 02:38:07;;;;;;;8.63;6.35;;;;;;;8.37;100.00;100355.25;7833578;18;20727;-75
2023/04/22 02:40:33;;;;;;;5.53;5.22;;;;;;;8.37;100.00;100355.25;7787087;18;20006;-75
2023/04/22 02:42:59;;;;;;;7.72;6.65;;;;;;;8.38;100.00;100352.59;7833579;18;19993;-71
2023/04/22 02:45:26;;;;;;;5.82;5.43;;;;;;;8.36;100.00;100358.81;7787349;18;20415;-74
2023/04/22 02:47:52;;;;;;;8.32;6.65;;;;;;;8.34;100.00;100355.44;7833075;18;19998;-74
2023/04/22 02:50:19;;;;;;;6.32;5.78;;;;;;;7.81;100.00;100257.75;7784417;18;19998;-73
2023/04/22 02:52:46;;;;;;;6.57;6.05;;;;;;;8.07;100.00;100297.47;7833913;18;20249;-74
2023/04/22 02:55:12;;;;;;;6.38;5.70;;;;;;;8.28;100.00;100330.44;7786681;18;20056;-73
2023/04/22 02:57:39;;;;;;;5.90;5.40;;;;;;;8.42;100.00;100347.22;7834750;18;20434;-73
2023/04/22 03:00:07;;;;;;;7.28;6.63;;;;;;;8.45;100.00;100344.47;7791976;18;20065;-73
2023/04/22 03:02:33;;;;;;;6.68;6.07;;;;;;;8.19;100.00;100299.50;7834765;18;20013;-73
2023/04/22 03:05:00;;;;;;;6.63;6.15;;;;;;;7.77;100.00;100214.41;7787091;18;20849;-73
2023/04/22 03:07:27;;;;;;;8.80;5.32;;;;;;;8.04;100.00;100269.72;7745180;18;20005;-73
2023/04/22 03:09:54;;;;;;;6.78;6.25;;;;;;;8.48;100.00;100323.38;7785987;18;20568;-74
2023/04/22 03:12:21;;;;;;;5.82;5.32;;;;;;;8.49;100.00;100325.09;7787371;18;20065;-72
2023/04/22 03:14:47;;;;;;;6.65;5.95;;;;;;;8.48;100.00;100326.88;7744993;18;20410;-73
2023/04/22 03:17:14;;;;;;;6.43;6.03;;;;;;;7.98;100.00;100243.91;7746542;18;20176;-73
2023/04/22 03:19:40;;;;;;;6.15;5.65;;;;;;;8.43;100.00;100317.53;7784943;18;20076;-72
2023/04/22 03:22:09;;;;;;;6.60;5.97;;;;;;;8.49;100.00;100323.31;7785713;18;20280;-73
2023/04/22 03:24:37;;;;;;;6.22;5.80;;;;;;;8.52;100.00;100319.69;7785919;18;19998;-73
2023/04/22 03:27:03;;;;;;;5.75;5.25;;;;;;;8.24;100.00;100266.13;7786645;18;20214;-73
2023/04/22 03:29:30;;;;;;;15.50;5.93;;;;;;;8.53;100.00;100310.94;7788011;18;20087;-73
2023/04/22 03:31:56;;;;;;;6.25;5.82;;;;;;;8.50;100.00;100311.94;7743606;18;20061;-73
2023/04/22 03:34:23;;;;;;;6.70;6.10;;;;;;;8.47;100.00;100308.63;7786055;18;20002;-73
2023/04/22 03:36:49;;;;;;;6.38;5.80;;;;;;;8.46;100.00;100317.38;7785272;18;20023;-73
2023/04/22 03:39:15;;;;;;;6.68;6.07;;;;;;;8.15;100.00;100266.59;7784679;18;19994;-73
2023/04/22 03:41:42;;;;;;;6.40;5.93;;;;;;;8.43;100.00;100305.31;7786537;18;20036;-73
2023/04/22 03:44:08;;;;;;;5.78;5.32;;;;;;;8.50;100.00;100308.47;7785560;18;20477;-73
2023/04/22 03:46:35;;;;;;;8.20;6.00;;;;;;;8.53;100.00;100303.94;7744984;18;20015;-73
2023/04/22 03:49:02;;;;;;;6.13;5.53;;;;;;;8.57;100.00;100302.84;7784469;18;20025;-71
2023/04/22 03:51:29;;;;;;;6.13;5.63;;;;;;;8.61;100.00;100297.47;7745271;18;20182;-73
2023/04/22 03:53:55;;;;;;;7.30;6.70;;;;;;;8.61;100.00;100289.63;7783481;18;20454;-73
2023/04/22 03:56:23;;;;;;;5.75;5.35;;;;;;;8.63;100.00;100296.47;7786498;18;20004;-73
2023/04/22 03:58:52;;;;;;;5.50;5.20;;;;;;;8.10;100.00;100200.63;7785667;18;20249;-73
2023/04/22 04:01:18;;;;;;;6.03;5.63;;;;;;;8.68;100.00;100281.41;7745037;18;20002;-73
2023/04/22 04:03:44;;;;;;;5.70;5.30;;;;;;;8.70;100.00;100287.41;7784514;18;20034;-73
2023/04/22 04:06:11;;;;;;;5.78;5.38;;;;;;;8.57;100.00;100268.84;7786941;18;19998;-73
2023/04/22 04:08:38;;;;;;;5.82;5.32;;;;;;;8.66;100.00;100275.41;7786191;18;20016;-74
2023/04/22 04:11:04;;;;;;;17.35;5.70;;;;;;;8.08;100.00;100166.72;7789692;18;20343;-73
2023/04/22 04:13:31;;;;;;;5.45;5.15;;;;;;;8.74;100.00;100267.13;7743180;18;20081;-72
2023/04/22 04:15:58;;;;;;;6.85;5.97;;;;;;;8.74;100.00;100267.13;7785094;18;20072;-73
2023/04/22 04:18:26;;;;;;;6.80;6.32;;;;;;;8.07;100.00;100162.41;7784817;18;20426;-73
2023/04/22 04:20:52;;;;;;;5.55;4.97;;;;;;;8.79;100.00;100263.34;7785055;18;20003;-73
2023/04/22 04:23:18;;;;;;;5.00;4.75;;;;;;;8.85;100.00;100254.34;7785833;18;20011;-72
2023/04/22 04:25:45;;;;;;;5.55;5.05;;;;;;;8.88;100.00;100255.94;7744467;18;20018;-72
2023/04/22 04:28:12;;;;;;;5.63;5.18;;;;;;;8.10;100.00;100140.53;7785175;18;20579;-70
2023/04/22 04:30:40;;;;;;;5.30;5.00;;;;;;;8.92;100.00;100253.13;7785738;18;19994;-72
2023/04/22 04:33:06;;;;;;;5.38;5.05;;;;;;;9.01;100.00;100250.94;7785149;18;20199;-70
2023/04/22 04:35:34;;;;;;;6.65;5.63;;;;;;;8.86;100.00;100234.25;7786716;18;20002;-71
2023/04/22 04:38:01;;;;;;;6.22;5.82;;;;;;;9.08;100.00;100262.75;7784354;18;20057;-70
2023/04/22 04:40:30;;;;;;;6.53;6.05;;;;;;;9.05;100.00;100249.84;7784776;18;20005;-71
2023/04/22 04:42:57;;;;;;;5.35;4.95;;;;;;;8.73;100.00;100200.88;7784102;18;20469;-70
2023/04/22 04:45:24;;;;;;;6.13;5.57;;;;;;;8.75;100.00;100193.81;7788247;18;20165;-70
2023/04/22 04:47:53;;;;;;;6.07;5.70;;;;;;;8.55;100.00;100141.69;7746058;18;20010;-71
2023/04/22 04:50:21;;;;;;;6.88;6.47;;;;;;;8.60;100.00;100155.41;7784981;18;20465;-70
2023/04/22 04:52:47;;;;;;;6.20;5.80;;;;;;;9.19;100.00;100239.47;7745795;18;20019;-70
2023/04/22 04:55:15;;;;;;;5.93;5.43;;;;;;;9.19;100.00;100232.47;7788925;18;19998;-69
2023/04/22 04:57:43;;;;;;;5.43;4.95;;;;;;;8.74;100.00;100154.63;7791698;18;19994;-71
2023/04/22 05:00:10;;;;;;;5.80;5.40;;;;;;;9.23;100.00;100237.56;7787169;18;20356;-69
2023/04/22 05:02:36;;;;;;;5.25;4.88;;;;;;;9.26;100.00;100243.47;7788414;18;20459;-69
2023/04/22 05:05:03;;;;;;;5.20;4.90;;;;;;;9.18;100.00;100222.94;7787634;18;19998;-71
2023/04/22 05:07:29;;;;;;;5.35;4.97;;;;;;;9.29;100.00;100229.38;7788206;18;19994;-70
2023/04/22 05:09:56;;;;;;;5.75;5.35;;;;;;;9.43;100.00;100232.06;7786024;18;20457;-68
2023/04/22 05:12:22;;;;;;;5.45;5.00;;;;;;;9.49;100.00;100233.50;7789054;18;20051;-69
2023/04/22 05:14:49;;;;;;;5.88;5.45;;;;;;;8.79;100.00;100118.63;7786976;18;20009;-68
2023/04/22 05:17:15;;;;;;;5.32;4.93;;;;;;;9.54;100.00;100234.94;7788239;18;20000;-72
2023/04/22 05:19:42;;;;;;;6.07;5.57;;;;;;;9.65;100.00;100247.44;7785029;18;20006;-70
2023/04/22 05:22:08;;;;;;;5.22;4.93;;;;;;;9.77;100.00;100246.75;7786942;18;20002;-71
2023/04/22 05:24:35;;;;;;;5.60;5.20;;;;;;;9.89;100.00;100250.47;7786700;18;20016;-70
2023/04/22 05:27:01;;;;;;;10.38;5.80;;;;;;;9.98;100.00;100242.09;7789351;18;20005;-69
2023/04/22 05:29:28;;;;;;;5.20;4.85;;;;;;;10.05;100.00;100252.22;7788359;18;20004;-69
2023/04/22 05:31:54;;;;;;;5.18;4.88;;;;;;;10.09;100.00;100246.72;7748836;18;19990;-70
2023/04/22 05:34:20;;;;;;;7.03;6.30;;;;;;;10.15;100.00;100246.34;7787537;18;20380;-70
2023/04/22 05:36:47;;;;;;;5.70;5.30;;;;;;;10.28;100.00;100237.78;7786205;18;20336;-71
2023/04/22 05:39:13;;;;;;;6.15;5.65;;;;;;;10.33;100.00;100244.47;7745772;18;20205;-69
2023/04/22 05:41:40;;;;;;;4.88;4.63;;;;;;;10.50;100.00;100255.75;7746567;18;20429;-69
2023/04/22 05:44:06;;;;;;;5.60;5.13;;;;;;;10.86;100.00;100244.81;7787637;18;20005;-70
2023/04/22 05:46:33;;;;;;;5.50;5.10;;;;;;;11.25;100.00;100253.84;7789610;18;20004;-71
2023/04/22 05:49:02;;;;;;;5.82;5.32;;;;;;;10.73;100.00;100123.16;7787659;18;20005;-71
2023/04/22 05:51:28;;;;;;;6.05;5.65;;;;;;;11.47;100.00;100237.56;7785524;18;20066;-73
2023/04/22 05:53:54;;;;;;;6.82;5.63;;;;;;;11.47;100.00;100236.75;7787079;18;20017;-70
2023/04/22 05:56:21;;;;;;;6.47;5.75;;;;;;;10.68;100.00;100136.56;7786658;18;20276;-70
2023/04/22 05:58:47;;;;;;;5.20;4.90;;;;;;;11.16;100.00;100228.13;7745739;18;19998;-73
2023/04/22 06:01:14;;;;;;;5.55;5.15;;;;;;;10.38;100.00;100116.53;7788590;18;20009;-71
2023/04/22 06:03:40;;;;;;;6.22;5.68;;;;;;;10.97;100.00;100223.19;7789385;18;20670;-72
2023/04/22 06:06:07;;;;;;;5.32;5.03;;;;;;;10.90;100.00;100227.13;7789153;18;20220;-72
2023/04/22 06:08:33;;;;;;;5.30;4.90;;;;;;;10.60;100.00;100178.16;7788244;18;19998;-71
2023/04/22 06:11:00;;;;;;;5.55;5.25;;;;;;;10.77;100.00;100196.38;7788190;18;20002;-70
2023/04/22 06:13:26;;;;;;;5.45;5.05;;;;;;;10.65;100.00;100160.38;7788328;18;20308;-70
2023/04/22 06:15:53;;;;;;;5.00;4.70;;;;;;;10.28;100.00;100083.03;7788046;18;20078;-70
2023/04/22 06:18:20;;;;;;;5.05;4.75;;;;;;;11.00;100.00;100198.50;7788168;18;19990;-70
2023/04/22 06:20:46;;;;;;;5.40;5.00;;;;;;;10.57;100.00;100115.41;7788477;18;20052;-69
2023/04/22 06:23:12;;;;;;;5.93;5.35;;;;;;;11.26;100.00;100224.00;7787795;18;20490;-70
2023/04/22 06:25:39;;;;;;;5.70;5.38;;;;;;;11.35;100.00;100217.34;7788108;18;20002;-69
2023/04/22 06:28:05;;;;;;;5.80;5.40;;;;;;;11.56;100.00;100215.94;7787226;18;20616;-70
2023/04/22 06:30:32;;;;;;;5.90;5.38;;;;;;;11.70;100.00;100208.97;7746587;18;20029;-71
2023/04/22 06:32:58;;;;;;;5.95;5.55;;;;;;;11.96;100.00;100213.41;7785593;18;20189;-69
2023/04/22 06:35:25;;;;;;;5.07;4.70;;;;;;;12.04;100.00;100210.25;7787746;18;20078;-70
2023/04/22 06:37:52;;;;;;;5.82;5.30;;;;;;;12.20;100.00;100199.56;7788174;18;20078;-70
2023/04/22 06:40:18;;;;;;;5.72;5.43;;;;;;;12.33;100.00;100192.53;7745517;18;20091;-71
2023/04/22 06:42:45;;;;;;;6.05;5.65;;;;;;;12.46;100.00;100175.91;7788205;18;20002;-71
2023/04/22 06:45:11;;;;;;;5.47;5.18;;;;;;;12.68;100.00;100170.84;7787357;18;20348;-70
2023/04/22 06:47:38;;;;;;;5.65;5.25;;;;;;;12.84;100.00;100167.16;7789137;18;20020;-70
2023/04/22 06:50:09;;;;;;;6.10;5.60;;;;;;;12.84;100.00;100143.44;7744606;18;20014;-70
2023/04/22 06:52:35;;;;;;;5.93;5.47;;;;;;;12.63;100.00;100107.16;7744018;18;20418;-70
2023/04/22 06:55:02;;;;;;;6.50;6.00;;;;;;;12.96;100.00;100138.16;7787064;18;20199;-70
2023/04/22 06:57:29;;;;;;;5.53;5.22;;;;;;;13.12;100.00;100132.63;7786103;18;20158;-70
2023/04/22 06:59:56;;;;;;;5.70;5.35;;;;;;;13.23;100.00;100120.47;7785615;18;20001;-69
2023/04/22 07:02:22;;;;;;;6.40;5.93;;;;;;;13.30;100.00;100114.69;7786333;18;20060;-73
2023/04/22 07:04:49;;;;;;;5.72;5.40;;;;;;;13.34;100.00;100099.47;7786242;18;19998;-70
2023/04/22 07:07:15;;;;;;;5.55;5.25;;;;;;;13.29;99.72;100091.03;7744614;18;20324;-71
2023/04/22 07:09:42;;;;;;;6.03;5.53;;;;;;;13.28;99.95;100081.47;7784939;18;20194;-70
2023/04/22 07:12:08;;;;;;;6.25;5.75;;;;;;;13.24;100.00;100085.28;7787503;18;20155;-72
2023/04/22 07:14:35;;;;;;;5.70;5.20;;;;;;;13.36;100.00;100082.59;7787275;18;20017;-71
2023/04/22 07:17:02;;;;;;;5.72;5.32;;;;;;;13.59;100.00;100093.25;7787433;18;20320;-69
2023/04/22 07:19:29;;;;;;;5.93;5.53;;;;;;;13.72;100.00;100080.81;7785375;18;20622;-71
2023/04/22 07:21:55;;;;;;;5.80;5.25;;;;;;;13.80;97.05;100059.16;7785163;18;20297;-70
2023/04/22 07:24:22;;;;;;;5.80;5.40;;;;;;;13.85;95.88;100040.31;7785209;18;20073;-69
2023/04/22 07:26:48;;;;;;;6.35;5.80;;;;;;;14.05;95.42;100038.78;7786434;18;20141;-70
2023/04/22 07:29:15;;;;;;;5.47;5.18;;;;;;;14.15;92.10;100022.16;7787049;18;20221;-70
2023/04/22 07:31:41;;;;;;;5.90;5.50;;;;;;;14.36;91.40;100016.13;7746313;18;19994;-71
2023/04/22 07:34:09;;;;;;;6.00;5.60;;;;;;;14.67;90.52;100019.84;7784277;18;20009;-70
2023/04/22 07:36:36;;;;;;;5.93;5.43;;;;;;;14.83;86.56;99971.88;7786883;18;20066;-69
2023/04/22 07:39:02;;;;;;;6.25;5.85;;;;;;;15.05;85.21;99984.16;7785380;18;20022;-73
2023/04/22 07:41:29;;;;;;;5.35;5.05;;;;;;;15.19;83.68;99961.06;7789957;18;20005;-69
2023/04/22 07:43:55;;;;;;;6.03;5.60;;;;;;;15.34;80.69;99936.81;7788991;18;20478;-70
2023/04/22 07:46:22;;;;;;;6.03;5.55;;;;;;;15.32;79.48;99911.50;7785514;18;20002;-70
2023/04/22 07:48:48;;;;;;;6.00;5.57;;;;;;;15.29;79.83;99896.69;7785005;18;20018;-69
2023/04/22 07:51:16;;;;;;;8.50;5.80;;;;;;;15.54;79.88;99902.56;7786917;18;20211;-70
2023/04/22 07:53:42;;;;;;;6.35;5.95;;;;;;;15.72;77.89;99895.72;7782576;18;20077;-70
2023/04/22 07:56:08;;;;;;;5.70;5.40;;;;;;;15.91;76.32;99879.06;7786051;18;19994;-72
2023/04/22 07:58:35;;;;;;;6.00;5.60;;;;;;;15.95;76.44;99859.28;7785197;18;20185;-72
2023/04/22 08:01:01;;;;;;;6.25;5.85;;;;;;;16.04;74.86;99841.78;7785129;18;20478;-70
2023/04/22 08:03:28;;;;;;;5.82;5.43;;;;;;;16.08;74.24;99845.00;7785159;18;20002;-71
2023/04/22 08:05:57;;;;;;;6.55;6.05;;;;;;;16.04;73.69;99825.91;7745177;18;20045;-70
2023/04/22 08:08:24;;;;;;;6.15;5.75;;;;;;;16.17;73.26;99824.81;7784826;18;20338;-70
2023/04/22 08:10:51;;;;;;;6.30;5.90;;;;;;;16.29;73.68;99831.63;7784524;18;20073;-71
2023/04/22 08:13:17;;;;;;;10.57;5.93;;;;;;;16.08;72.51;99760.31;7784788;18;19997;-70
2023/04/22 08:15:43;;;;;;;5.95;5.57;;;;;;;16.25;71.69;99754.28;7785783;18;20018;-70
2023/04/22 08:18:10;;;;;;;5.80;5.38;;;;;;;16.21;70.16;99715.84;7784923;18;19989;-71
2023/04/22 08:20:36;;;;;;;5.53;5.22;;;;;;;16.66;69.61;99764.72;7785759;18;19998;-70
2023/04/22 08:23:03;;;;;;;5.53;5.22;;;;;;;16.71;69.27;99734.16;7787355;18;20038;-70
2023/04/22 08:25:30;;;;;;;5.78;5.43;;;;;;;17.01;67.19;99708.44;7788415;18;20030;-71
2023/04/22 08:27:56;;;;;;;6.18;5.72;;;;;;;17.22;67.00;99720.63;7787594;18;20348;-72
2023/04/22 08:30:23;;;;;;;5.85;5.50;;;;;;;17.40;67.13;99715.34;7746866;18;20008;-69
2023/04/22 08:32:52;;;;;;;6.50;6.00;;;;;;;17.37;65.26;99666.09;7786975;18;20072;-72
2023/04/22 08:35:19;;;;;;;6.25;5.85;;;;;;;17.27;64.66;99628.22;7746134;18;20008;-71
2023/04/22 08:37:45;;;;;;;6.40;6.00;;;;;;;17.37;65.01;99642.25;7787154;18;20014;-72
2023/04/22 08:40:12;;;;;;;6.15;5.75;;;;;;;16.86;66.31;99585.38;7787218;18;20022;-69
2023/04/22 08:42:39;;;;;;;26.50;25.10;;;;;;;17.52;65.30;99656.66;7713142;18;20297;-69
2023/04/22 08:45:05;;;;;;;10.57;6.15;;;;;;;17.69;64.61;99628.44;7613374;18;20325;-72
2023/04/22 08:47:33;;;;;;;5.95;5.55;;;;;;;17.82;64.16;99619.25;7788547;18;20016;-69
2023/04/22 08:50:04;;;;;;;6.10;5.70;;;;;;;17.91;64.86;99616.56;7789737;18;20234;-70
2023/04/22 08:52:30;;;;;;;6.07;5.63;;;;;;;18.18;64.29;99627.22;7787486;18;20009;-70
2023/04/22 08:54:57;;;;;;;5.65;5.35;;;;;;;18.05;63.30;99563.91;7741533;18;20002;-70
2023/04/22 08:57:24;;;;;;;5.70;5.35;;;;;;;17.86;63.47;99541.88;7788394;18;20066;-70
2023/04/22 08:59:51;;;;;;;6.38;5.97;;;;;;;18.13;63.30;99583.38;7787067;18;20299;-70
2023/04/22 09:02:19;;;;;;;6.05;5.65;;;;;;;18.00;63.92;99552.91;7789056;18;19990;-69
2023/04/22 09:04:48;;;;;;;6.25;5.85;;;;;;;18.39;62.77;99563.94;7786524;18;20478;-69
2023/04/22 09:07:21;;;;;;;5.85;5.55;;;;;;;18.37;60.68;99493.38;7788481;18;20010;-70
2023/04/22 09:09:47;;;;;;;7.15;6.35;;;;;;;18.62;59.62;99507.56;7786032;18;20005;-70
2023/04/22 09:12:14;;;;;;;6.95;6.45;;;;;;;18.83;59.86;99518.63;7747401;18;20078;-69
2023/04/22 09:14:41;;;;;;;6.10;5.70;;;;;;;18.97;58.77;99503.88;7785873;18;20075;-69
2023/04/22 09:17:08;;;;;;;6.20;5.90;;;;;;;18.88;58.54;99483.56;7788463;18;19998;-71
2023/04/22 09:19:34;;;;;;;5.97;5.68;;;;;;;18.91;58.10;99478.75;7786985;18;20465;-71
2023/04/22 09:22:01;;;;;;;6.13;5.78;;;;;;;18.63;57.71;99401.09;7787011;18;20020;-71
2023/04/22 09:24:28;;;;;;;6.30;5.85;;;;;;;18.59;57.26;99380.34;7787095;18;20390;-72
2023/04/22 09:26:56;;;;;;;6.40;6.00;;;;;;;19.11;56.92;99439.41;7746033;18;20328;-72
2023/04/22 09:29:29;;;;;;;6.10;5.78;;;;;;;19.34;57.80;99478.63;7744276;18;20040;-70
2023/04/22 09:31:56;;;;;;;6.10;5.72;;;;;;;18.36;56.78;99281.84;7786595;18;20406;-70
2023/04/22 09:34:22;;;;;;;6.43;5.82;;;;;;;19.66;56.23;99475.09;7745711;18;20438;-71
2023/04/22 09:36:50;;;;;;;6.45;6.05;;;;;;;19.96;55.91;99458.59;7787800;18;20002;-71
2023/04/22 09:39:16;;;;;;;6.50;6.10;;;;;;;19.77;55.33;99399.41;7785421;18;20002;-71
2023/04/22 09:41:43;;;;;;;6.25;5.93;;;;;;;20.14;54.61;99461.84;7786292;18;20276;-70
2023/04/22 09:44:16;;;;;;;7.03;6.32;;;;;;;20.28;54.82;99484.28;7786819;18;20407;-70
2023/04/22 09:46:44;;;;;;;6.10;5.70;;;;;;;20.34;53.82;99478.25;7787486;18;20009;-70
2023/04/22 09:49:10;;;;;;;6.85;6.35;;;;;;;20.46;53.21;99460.06;7787338;18;20034;-74
2023/04/22 09:51:41;;;;;;;6.47;6.07;;;;;;;20.62;52.50;99452.00;7786586;18;20002;-71
2023/04/22 09:54:10;;;;;;;6.30;5.90;;;;;;;20.82;51.95;99486.22;7786413;18;19997;-70
2023/04/22 09:56:48;;;;;;;6.10;5.80;;;;;;;20.92;51.13;99471.63;7784609;18;20112;-71
2023/04/22 09:59:27;;;;;;;6.40;5.90;;;;;;;20.93;52.05;99485.81;7786198;18;20060;-72
2023/04/22 10:02:03;;;;;;;6.55;6.15;;;;;;;21.14;52.02;99537.69;7786721;18;19998;-71
2023/04/22 10:04:30;;;;;;;5.90;5.60;;;;;;;21.23;51.32;99526.78;7786422;18;20469;-70
2023/04/22 10:06:56;;;;;;;6.60;6.10;;;;;;;21.34;50.31;99508.69;7787210;18;20007;-71
2023/04/22 10:09:24;;;;;;;6.20;5.90;;;;;;;21.40;50.64;99551.50;7786640;18;20004;-71
2023/04/22 10:11:57;;;;;;;6.28;5.93;;;;;;;20.65;50.03;99453.50;7785895;18;20457;-70
2023/04/22 10:14:25;;;;;;;6.25;5.78;;;;;;;21.26;50.82;99570.97;7786175;18;19998;-70
2023/04/22 10:16:57;;;;;;;6.30;5.90;;;;;;;21.48;50.59;99604.84;7786581;18;20022;-69
2023/04/22 10:19:25;;;;;;;6.25;5.95;;;;;;;21.97;49.85;99598.31;7785164;18;20148;-70
2023/04/22 10:21:56;;;;;;;6.00;5.60;;;;;;;21.99;49.35;99585.59;7783457;18;20162;-70
2023/04/22 10:24:27;;;;;;;6.30;6.00;;;;;;;21.60;48.63;99561.75;7784889;18;19998;-70
2023/04/22 10:26:58;;;;;;;6.63;6.13;;;;;;;21.45;49.22;99561.69;7786952;18;20114;-72
2023/04/22 10:29:33;;;;;;;6.68;6.18;;;;;;;21.48;49.70;99599.53;7786452;18;19997;-71
2023/04/22 10:32:05;;;;;;;6.13;5.68;;;;;;;20.99;49.69;99565.13;7786073;18;19998;-71
2023/04/22 10:34:36;;;;;;;6.53;6.13;;;;;;;20.15;49.87;99479.50;7786024;18;20004;-72
2023/04/22 10:37:11;;;;;;;6.40;5.80;;;;;;;19.98;51.23;99552.47;7787844;18;20440;-71
2023/04/22 10:39:39;;;;;;;6.15;5.75;;;;;;;20.19;52.05;99608.69;7786341;18;20019;-71
2023/04/22 10:42:09;;;;;;;6.53;6.10;;;;;;;20.36;51.67;99629.97;7786153;18;20273;-71
2023/04/22 10:44:46;;;;;;;6.20;5.80;;;;;;;20.74;51.53;99675.56;7744963;18;20471;-71
2023/04/22 10:47:43;;;;;;;5.97;5.68;;;;;;;21.03;50.34;99627.78;7786374;18;20072;-71
2023/04/22 10:50:10;;;;;;;6.38;5.93;;;;;;;21.22;49.26;99644.38;7785686;18;20005;-71
2023/04/22 10:52:37;;;;;;;6.00;5.60;;;;;;;21.03;50.09;99609.13;7786037;18;20086;-70
2023/04/22 10:55:04;;;;;;;6.13;5.68;;;;;;;21.34;49.93;99650.97;7785065;18;20214;-72
2023/04/22 10:57:37;;;;;;;6.30;5.90;;;;;;;21.50;49.25;99658.91;7783988;18;20002;-71
2023/04/22 11:00:15;;;;;;;6.03;5.72;;;;;;;21.70;48.56;99672.63;7786290;18;20018;-71
2023/04/22 11:02:46;;;;;;;6.40;6.00;;;;;;;21.50;47.87;99623.38;7785496;18;20012;-73
2023/04/22 11:05:22;;;;;;;6.32;5.93;;;;;;;20.98;48.48;99575.97;7786019;18;20052;-70
2023/04/22 11:08:02;;;;;;;6.35;5.90;;;;;;;20.71;48.85;99568.25;7786740;18;20084;-72
2023/04/22 11:10:36;;;;;;;6.60;6.20;;;;;;;20.69;49.81;99617.44;7786281;18;20164;-70
2023/04/22 11:13:02;;;;;;;6.38;5.97;;;;;;;21.08;50.02;99681.44;7786482;18;20010;-72
2023/04/22 11:15:32;;;;;;;6.60;6.20;;;;;;;21.12;49.31;99682.75;7787030;18;20403;-71
2023/04/22 11:17:59;;;;;;;6.15;5.85;;;;;;;21.07;50.46;99693.13;7786506;18;19998;-72
2023/04/22 11:20:27;;;;;;;7.07;6.57;;;;;;;20.39;50.28;99587.84;7784322;18;20013;-72
2023/04/22 11:22:55;;;;;;;6.00;5.70;;;;;;;21.63;50.43;99746.44;7785301;18;20190;-70
2023/04/22 11:25:25;;;;;;;6.28;5.93;;;;;;;21.88;49.77;99747.13;7786836;18;20009;-70
2023/04/22 11:27:55;;;;;;;6.25;5.75;;;;;;;22.33;48.41;99758.03;7785872;18;20081;-70